Flight Track Log - Related Links

Times and Time Zones

All times are in EST time to prevent confusion due to time zone crossing. See the SSX929 flight status page for this flight to view local times or setup timezone preferences in your user account.

Time Position Orientation Groundspeed Altitude Reporting Facility
EST Latitude Longitude Course Direction KTS MPH feet Rate Location/Type
Sat 10:24:14 AM 39.8048 -104.6520 179° South -1  Level FlightAware Approximate
Sat 10:25:20 AM 39.7333 -104.6500 237° Southwest 227 261 9,800 5,714 Climbing Denver TRACON
Sat 10:26:20 AM 39.7000 -104.7170 252° West 224 258 11,900 2,211 Climbing Denver TRACON
Sat 10:27:14 AM 39.6833 -104.7830 285° West 220 253 14,000 2,269 Climbing Denver TRACON
Sat 10:28:19 AM 39.7000 -104.8670 271° West 218 251 16,400 1,739 Climbing Denver TRACON
Sat 10:29:32 AM 39.7006 -104.9560 277° West 221 254 18,000 1,433 Climbing Denver Center
Sat 10:30:33 AM 39.7078 -105.0370 276° West 230 265 19,600 1,686 Climbing Denver Center
Sat 10:31:33 AM 39.7150 -105.1210 276° West 242 278 21,400 1,550 Climbing Denver Center
Sat 10:32:33 AM 39.7222 -105.2070 276° West 232 267 22,700 1,250 Climbing Denver Center
Sat 10:33:33 AM 39.7294 -105.2930 272° West 232 267 23,900 650 Climbing Denver Center
Sat 10:34:33 AM 39.7325 -105.3880 260° West 248 285 24,000 50 Climbing Denver Center
Sat 10:35:33 AM 39.7186 -105.4880 261° West 278 320 24,000 50 Level Denver Center
Sat 10:36:33 AM 39.7050 -105.5960 260° West 299 344 24,100 50 Climbing Denver Center
Sat 10:37:33 AM 39.6911 -105.7010 255° West 305 351 24,100  Level Denver Center
Sat 10:38:33 AM 39.6689 -105.8120 254° West 310 357 24,100 -300 Level Denver Center
Sat 10:39:33 AM 39.6444 -105.9230 255° West 322 371 23,500 -950 Descending Denver Center
Sat 10:40:33 AM 39.6200 -106.0390 254° West 330 380 22,200 -1,300 Descending Denver Center
Sat 10:41:33 AM 39.5953 -106.1520 258° West 330 380 20,900 -1,050 Descending Denver Center
Sat 10:42:33 AM 39.5789 -106.2500 254° West 330 380 20,100 -450 Descending Denver Center
Sat 10:43:33 AM 39.5561 -106.3550 256° West 319 367 20,000 -50 Descending Denver Center
Sat 10:44:33 AM 39.5331 -106.4710 254° West 314 361 20,000 -50 Level Denver Center
Sat 10:45:33 AM 39.5103 -106.5730 256° West 308 354 19,900 -550 Descending Denver Center
Sat 10:46:33 AM 39.4956 -106.6480 249° West 270 311 18,900 -1,255 Descending Denver Center
Sat 10:47:23 AM 39.4744 -106.7180 252° West 219 252 17,600 -1,800 Descending Denver Center
Sat 10:48:33 AM 39.4514 -106.8070 207° Southwest 223 257 15,300 -1,708 Descending Denver Center
Sat 10:49:33 AM 39.3950 -106.8440 199° South 213 245 13,900 -1,613 Descending Denver Center
Sat 10:50:32 AM 39.3489 -106.8650 203° Southwest 205 236 12,100 -2,000 Descending Denver Center
Sat 10:51:24 AM 39.3136 -106.8840 207° Southwest 141 162 10,200 -1,339 Descending Denver Center
Sat 10:52:33 AM 39.2653 -106.9160 204° Southwest 185 213 9,400 4,381 Descending Denver Center
Sat 10:54:33 AM 39.1714 -106.9690 203° Southwest 185 213 24,000 4,867 Climbing Denver Center
Sat 10:55:33 AM 39.1233 -106.9950 203° Southwest 185 213 24,000  Level Denver Center

Login

Don't have an account? Register now (free) for customized features, flight alerts, and more!